Аэропорт: Братск. Братск

ICAO: UIBB

METAR:
2018/09/19 07:30
UIBB 190730Z VRB01MPS 9999 BKN043CB 06/02 Q1023 R30/290150 NOSIG RMK QFE724/0965
METAR:
2018/09/19 23:00
TAF 
      AMD UIBB 182345Z 1823/1924 26003G08MPS 3500 -SHRA BKN005 BKN011CB 
      BECMG 1903/1904 9999 NSW BKN013CB